createdAt,value
2019-05-02T00:00:06.871Z,20.13
2019-05-02T00:05:12.116Z,21.00
2019-05-02T00:10:20.046Z,24.67
2019-05-02T00:15:25.291Z,19.73
2019-05-02T00:20:29.509Z,17.57
2019-05-02T00:25:33.944Z,20.03
2019-05-02T00:30:38.128Z,21.33
2019-05-02T00:35:46.213Z,21.90
2019-05-02T00:40:48.210Z,21.43
2019-05-02T00:45:55.048Z,18.00
2019-05-02T00:50:58.436Z,18.10
2019-05-02T00:56:05.194Z,17.90
2019-05-02T01:01:39.637Z,19.30
2019-05-02T01:06:44.776Z,21.03
2019-05-02T01:11:50.001Z,21.10
2019-05-02T01:16:56.162Z,18.87
2019-05-02T01:22:00.117Z,16.07
2019-05-02T01:27:13.159Z,15.87
2019-05-02T01:32:30.154Z,14.63
2019-05-02T01:43:36.061Z,16.07
2019-05-02T01:48:45.769Z,13.73
2019-05-02T01:53:46.277Z,13.13
2019-05-02T01:58:53.037Z,15.50
2019-05-02T02:03:56.517Z,14.40
2019-05-02T02:09:03.501Z,14.23
2019-05-02T02:14:07.389Z,14.00
2019-05-02T02:19:39.106Z,14.03
2019-05-02T02:24:46.864Z,13.97
2019-05-02T02:29:51.256Z,13.43
2019-05-02T02:34:55.466Z,13.47
2019-05-02T02:39:59.697Z,12.70
2019-05-02T02:45:16.200Z,13.63
2019-05-02T02:50:18.052Z,12.67
2019-05-02T02:55:24.478Z,14.63
2019-05-02T03:00:28.250Z,15.17
2019-05-02T03:05:32.509Z,14.50
2019-05-02T03:10:39.847Z,12.53
2019-05-02T03:15:48.094Z,12.43
2019-05-02T03:20:52.333Z,13.50
2019-05-02T03:25:56.584Z,13.50
2019-05-02T03:31:21.914Z,16.13
2019-05-02T03:36:26.831Z,16.53
2019-05-02T03:41:20.597Z,16.83
2019-05-02T03:46:22.522Z,14.43
2019-05-02T03:51:26.516Z,15.23
2019-05-02T03:56:31.646Z,14.20
2019-05-02T04:01:41.348Z,14.83
2019-05-02T04:06:43.955Z,14.57
2019-05-02T04:11:48.386Z,13.80
2019-05-02T04:16:55.299Z,14.63
2019-05-02T04:22:01.465Z,13.63
2019-05-02T04:27:05.051Z,12.57
2019-05-02T04:32:11.456Z,13.37
2019-05-02T04:37:15.430Z,13.50
2019-05-02T04:42:23.190Z,13.10
2019-05-02T04:47:28.842Z,12.03
2019-05-02T04:52:31.616Z,13.17
2019-05-02T04:57:46.840Z,11.87
2019-05-02T05:02:43.547Z,12.20
2019-05-02T05:07:49.470Z,11.47
2019-05-02T05:12:53.898Z,10.00
2019-05-02T05:17:58.300Z,9.60
2019-05-02T05:23:02.725Z,10.13
2019-05-02T05:28:09.012Z,9.47
2019-05-02T05:33:12.970Z,8.13
2019-05-02T05:38:18.220Z,9.00
2019-05-02T05:43:22.574Z,10.17
2019-05-02T05:48:27.370Z,8.80
2019-05-02T05:53:31.712Z,7.90
2019-05-02T05:58:39.972Z,7.50
2019-05-02T06:03:44.894Z,8.47
2019-05-02T06:08:49.115Z,7.60
2019-05-02T06:13:53.833Z,8.27
2019-05-02T06:18:58.056Z,8.17
2019-05-02T06:24:02.391Z,8.47
2019-05-02T06:29:08.224Z,8.83
2019-05-02T06:34:12.503Z,9.67
2019-05-02T06:39:16.737Z,9.57
2019-05-02T06:44:23.785Z,9.57
2019-05-02T06:49:27.006Z,9.77
2019-05-02T06:54:31.228Z,9.90
2019-05-02T06:59:35.603Z,10.07
2019-05-02T07:04:39.865Z,9.57
2019-05-02T07:09:44.141Z,11.17
2019-05-02T07:14:48.385Z,11.30
2019-05-02T07:19:58.830Z,10.50
2019-05-02T07:25:06.989Z,10.30
2019-05-02T07:30:10.339Z,10.97
2019-05-02T07:35:19.304Z,10.87
2019-05-02T07:40:20.888Z,11.63
2019-05-02T07:45:25.139Z,11.57
2019-05-02T07:50:29.382Z,11.30
2019-05-02T07:55:35.332Z,10.70
2019-05-02T08:00:39.712Z,11.63
2019-05-02T08:05:44.416Z,12.07
2019-05-02T08:10:48.662Z,12.77
2019-05-02T08:15:52.931Z,12.03
2019-05-02T08:20:57.387Z,11.50
2019-05-02T08:26:01.793Z,13.37
2019-05-02T08:31:06.122Z,14.37
2019-05-02T08:36:10.352Z,13.60
2019-05-02T08:41:14.589Z,13.87
2019-05-02T08:46:18.884Z,14.70
2019-05-02T08:51:23.129Z,15.67
2019-05-02T08:56:27.385Z,14.20
2019-05-02T09:01:35.316Z,13.50
2019-05-02T09:06:37.766Z,14.63
2019-05-02T09:11:44.028Z,15.43
2019-05-02T09:16:48.106Z,15.23
2019-05-02T09:21:52.693Z,14.50
2019-05-02T09:26:57.002Z,16.17
2019-05-02T09:32:02.164Z,15.47
2019-05-02T09:37:06.472Z,15.53
2019-05-02T09:42:12.444Z,15.90
2019-05-02T09:47:27.280Z,17.40
2019-05-02T09:52:32.189Z,16.33
2019-05-02T09:57:35.761Z,17.00
2019-05-02T10:02:41.754Z,15.83
2019-05-02T10:07:48.559Z,15.57
2019-05-02T10:12:52.219Z,16.48
2019-05-02T10:18:07.811Z,16.30
2019-05-02T10:23:02.814Z,16.30
2019-05-02T10:28:10.078Z,16.63
2019-05-02T10:33:13.546Z,15.53
2019-05-02T10:38:19.429Z,16.87
2019-05-02T10:43:23.942Z,17.13
2019-05-02T10:48:29.058Z,17.60
2019-05-02T10:53:33.458Z,17.33
2019-05-02T10:58:37.707Z,19.73
2019-05-02T11:03:47.413Z,23.27
2019-05-02T11:08:52.454Z,16.33
2019-05-02T11:14:12.823Z,18.60
2019-05-02T11:19:23.054Z,18.73
2019-05-02T11:24:27.282Z,17.90
2019-05-02T11:29:32.231Z,18.50
2019-05-02T11:34:36.673Z,16.73
2019-05-02T11:39:46.278Z,16.70
2019-05-02T11:44:46.879Z,15.53
2019-05-02T11:49:55.605Z,17.10
2019-05-02T11:54:57.081Z,16.67
2019-05-02T12:00:04.925Z,17.53
2019-05-02T12:05:09.427Z,16.17
2019-05-02T12:10:13.842Z,15.73
2019-05-02T12:15:18.090Z,16.30
2019-05-02T12:20:22.827Z,15.20
2019-05-02T12:25:27.146Z,15.95
2019-05-02T12:30:34.157Z,13.93
2019-05-02T12:35:37.459Z,16.37
2019-05-02T12:40:42.309Z,15.00
2019-05-02T12:45:46.627Z,15.63
2019-05-02T12:50:52.766Z,16.65
2019-05-02T12:55:57.008Z,14.87
2019-05-02T13:01:02.842Z,14.45
2019-05-02T13:06:07.393Z,12.20
2019-05-02T13:11:23.865Z,13.03
2019-05-02T13:16:28.215Z,14.13
2019-05-02T13:21:42.168Z,12.45
2019-05-02T13:26:43.194Z,12.10
2019-05-02T13:32:08.696Z,12.03
2019-05-02T13:37:16.617Z,10.60
2019-05-02T13:42:21.941Z,12.05
2019-05-02T13:47:27.157Z,11.38
2019-05-02T13:52:33.187Z,11.65
2019-05-02T13:57:43.015Z,12.33
2019-05-02T14:02:44.225Z,12.60
2019-05-02T14:07:53.982Z,12.98
2019-05-02T14:12:58.534Z,12.20
2019-05-02T14:18:02.825Z,12.18
2019-05-02T14:23:07.298Z,13.45
2019-05-02T14:28:12.981Z,14.53
2019-05-02T14:33:23.267Z,15.72
2019-05-02T14:38:27.263Z,15.00
2019-05-02T14:43:49.259Z,14.10
2019-05-02T14:48:53.531Z,16.37
2019-05-02T14:54:05.829Z,16.27
2019-05-02T14:59:03.962Z,16.32
2019-05-02T15:04:08.514Z,15.93
2019-05-02T15:09:16.813Z,18.07
2019-05-02T15:14:20.772Z,17.15
2019-05-02T15:19:25.155Z,17.50
2019-05-02T15:24:33.180Z,18.12
2019-05-02T15:29:35.355Z,17.65
2019-05-02T15:34:57.540Z,17.90
2019-05-02T15:45:12.379Z,18.40
2019-05-02T15:50:21.986Z,18.05
2019-05-02T15:55:22.851Z,20.12
2019-05-02T16:00:32.207Z,18.85
2019-05-02T16:05:41.079Z,19.15
2019-05-02T16:10:42.942Z,20.23
2019-05-02T16:15:47.440Z,19.52
2019-05-02T16:21:07.046Z,18.77
2019-05-02T16:26:05.856Z,19.90
2019-05-02T16:31:12.578Z,19.25
2019-05-02T16:36:16.815Z,19.17
2019-05-02T16:41:21.765Z,20.68
2019-05-02T16:46:28.120Z,20.52
2019-05-02T16:51:34.722Z,20.00
2019-05-02T16:56:42.279Z,20.37
2019-05-02T17:01:44.461Z,20.15
2019-05-02T17:06:48.987Z,19.98
2019-05-02T17:11:53.239Z,20.30
2019-05-02T17:16:57.486Z,19.65
2019-05-02T17:22:02.601Z,20.88
2019-05-02T17:27:08.029Z,20.12
2019-05-02T17:32:12.289Z,20.62
2019-05-02T17:37:16.805Z,20.62
2019-05-02T17:42:23.520Z,20.62
2019-05-02T17:47:31.057Z,22.37
2019-05-02T17:52:39.239Z,21.87
2019-05-02T17:57:43.504Z,22.27
2019-05-02T18:02:51.885Z,23.35
2019-05-02T18:07:55.540Z,23.87
2019-05-02T18:13:06.737Z,24.43
2019-05-02T18:18:12.270Z,24.70
2019-05-02T18:23:24.100Z,26.00
2019-05-02T18:28:46.060Z,26.17
2019-05-02T18:33:42.428Z,26.82
2019-05-02T18:38:52.497Z,25.75
2019-05-02T18:43:53.638Z,25.82
2019-05-02T18:48:57.929Z,27.10
2019-05-02T18:54:04.358Z,27.65
2019-05-02T18:59:14.198Z,28.85
2019-05-02T19:04:17.719Z,28.15
2019-05-02T19:09:29.783Z,28.38
2019-05-02T19:14:32.749Z,27.17
2019-05-02T19:19:37.905Z,27.02
2019-05-02T19:24:42.846Z,27.70
2019-05-02T19:29:49.527Z,25.08
2019-05-02T19:35:02.254Z,27.02
2019-05-02T19:40:04.773Z,23.22
2019-05-02T19:45:15.398Z,22.98
2019-05-02T19:50:41.646Z,23.67
2019-05-02T19:55:44.114Z,23.67
2019-05-02T20:00:48.836Z,23.92
2019-05-02T20:05:56.748Z,25.92
2019-05-02T20:10:59.227Z,23.73
2019-05-02T20:16:12.581Z,20.00
2019-05-02T20:21:27.837Z,19.73
2019-05-02T20:26:32.559Z,18.37
2019-05-02T20:31:37.444Z,16.73
2019-05-02T20:36:42.585Z,17.27
2019-05-02T20:41:46.918Z,17.37
2019-05-02T20:46:51.707Z,10.82
2019-05-02T20:51:55.996Z,10.65
2019-05-02T20:57:00.326Z,8.20
2019-05-02T21:02:04.618Z,8.20
2019-05-02T21:07:29.574Z,10.87
2019-05-02T21:12:33.812Z,12.37
2019-05-02T21:17:38.090Z,10.37
2019-05-02T21:22:42.435Z,11.18
2019-05-02T21:27:46.710Z,10.87
2019-05-02T21:32:52.093Z,7.93
2019-05-02T21:37:56.398Z,9.07
2019-05-02T21:43:02.483Z,9.37
2019-05-02T21:48:06.631Z,8.33
2019-05-02T21:53:28.583Z,9.43
2019-05-02T21:58:32.814Z,5.87
2019-05-02T22:03:37.819Z,6.87
2019-05-02T22:08:42.053Z,5.73
2019-05-02T22:13:46.289Z,4.80
2019-05-02T22:18:52.173Z,4.70
2019-05-02T22:24:08.123Z,4.40
2019-05-02T22:29:02.692Z,4.10
2019-05-02T22:34:07.144Z,3.97
2019-05-02T22:39:41.918Z,3.90
2019-05-02T22:44:45.834Z,3.17
2019-05-02T22:49:51.824Z,3.50
2019-05-02T22:54:56.148Z,3.50
2019-05-02T23:00:01.888Z,3.70
2019-05-02T23:05:07.403Z,3.53
2019-05-02T23:10:12.655Z,3.10
2019-05-02T23:15:17.007Z,3.03
2019-05-02T23:20:21.784Z,2.70
2019-05-02T23:25:46.178Z,2.60
2019-05-02T23:30:51.882Z,2.93
2019-05-02T23:35:56.139Z,3.00
2019-05-02T23:41:02.072Z,3.00
2019-05-02T23:46:06.683Z,2.93
2019-05-02T23:51:12.107Z,2.60
2019-05-02T23:56:16.432Z,2.90
